createdAt,value
2022-12-27T00:00:08.873Z,9.20
2022-12-27T00:02:42.229Z,9.20
2022-12-27T00:05:12.494Z,9.20
2022-12-27T00:07:42.258Z,9.20
2022-12-27T00:10:11.868Z,9.20
2022-12-27T00:12:40.395Z,9.20
2022-12-27T00:15:09.669Z,9.20
2022-12-27T00:17:38.023Z,9.20
2022-12-27T00:20:11.239Z,9.20
2022-12-27T00:22:42.261Z,9.20
2022-12-27T00:25:12.215Z,9.20
2022-12-27T00:27:40.460Z,9.20
2022-12-27T00:30:10.079Z,9.10
2022-12-27T00:32:38.392Z,9.20
2022-12-27T00:35:07.582Z,9.10
2022-12-27T00:37:36.688Z,9.10
2022-12-27T00:40:07.328Z,9.20
2022-12-27T00:42:36.202Z,9.10
2022-12-27T00:45:05.817Z,9.10
2022-12-27T00:47:34.230Z,9.10
2022-12-27T00:50:02.913Z,9.10
2022-12-27T00:52:31.402Z,9.10
2022-12-27T00:54:59.734Z,9.10
2022-12-27T00:57:29.437Z,9.10
2022-12-27T00:59:57.797Z,9.10
2022-12-27T01:02:26.153Z,9.10
2022-12-27T01:04:55.156Z,9.10
2022-12-27T01:07:25.337Z,9.10
2022-12-27T01:09:53.572Z,9.10
2022-12-27T01:12:22.953Z,9.10
2022-12-27T01:14:52.625Z,9.10
2022-12-27T01:17:20.820Z,9.10
2022-12-27T01:19:49.127Z,9.00
2022-12-27T01:22:17.424Z,9.00
2022-12-27T01:24:45.711Z,9.10
2022-12-27T01:27:13.925Z,9.10
2022-12-27T01:29:42.098Z,9.00
2022-12-27T01:32:11.629Z,9.30
2022-12-27T01:34:40.056Z,9.00
2022-12-27T01:37:08.309Z,9.00
2022-12-27T01:39:36.962Z,9.20
2022-12-27T01:42:22.962Z,9.10
2022-12-27T01:44:56.781Z,9.00
2022-12-27T01:47:46.365Z,9.00
2022-12-27T01:50:24.112Z,9.00
2022-12-27T01:52:57.723Z,9.00
2022-12-27T01:55:31.611Z,9.00
2022-12-27T01:58:05.184Z,9.00
2022-12-27T02:00:33.850Z,9.00
2022-12-27T02:03:06.144Z,9.00
2022-12-27T02:05:35.665Z,9.00
2022-12-27T02:08:18.314Z,9.00
2022-12-27T02:10:47.710Z,9.00
2022-12-27T02:13:16.967Z,9.00
2022-12-27T02:15:45.135Z,9.00
2022-12-27T02:18:14.763Z,9.00
2022-12-27T02:21:06.801Z,9.00
2022-12-27T02:24:06.755Z,9.00
2022-12-27T02:26:57.500Z,9.00
2022-12-27T02:29:53.284Z,9.00
2022-12-27T02:32:29.393Z,9.00
2022-12-27T02:35:07.367Z,9.00
2022-12-27T02:37:40.351Z,9.00
2022-12-27T02:40:30.052Z,8.90
2022-12-27T02:43:16.667Z,8.90
2022-12-27T02:46:09.901Z,8.90
2022-12-27T02:49:12.909Z,8.90
2022-12-27T02:52:12.562Z,8.90
2022-12-27T02:54:59.591Z,8.90
2022-12-27T02:57:38.038Z,8.90
2022-12-27T03:00:28.835Z,8.90
2022-12-27T03:03:42.654Z,8.90
2022-12-27T03:06:42.136Z,8.90
2022-12-27T03:09:58.449Z,8.90
2022-12-27T03:12:59.364Z,8.90
2022-12-27T03:15:57.549Z,8.90
2022-12-27T03:18:52.207Z,8.90
2022-12-27T03:21:42.333Z,8.90
2022-12-27T03:24:30.731Z,8.90
2022-12-27T03:27:01.296Z,8.80
2022-12-27T03:29:47.668Z,8.80
2022-12-27T03:32:34.202Z,8.80
2022-12-27T03:35:11.974Z,8.80
2022-12-27T03:38:01.634Z,8.80
2022-12-27T03:40:38.961Z,8.80
2022-12-27T03:43:12.870Z,8.80
2022-12-27T03:46:29.635Z,8.80
2022-12-27T03:49:17.351Z,8.80
2022-12-27T03:51:51.156Z,8.80
2022-12-27T03:54:26.409Z,9.10
2022-12-27T03:56:57.091Z,8.80
2022-12-27T03:59:27.325Z,8.80
2022-12-27T04:01:55.827Z,8.80
2022-12-27T04:04:24.201Z,8.80
2022-12-27T04:06:53.723Z,8.80
2022-12-27T04:09:39.649Z,8.80
2022-12-27T04:12:25.405Z,8.80
2022-12-27T04:15:11.843Z,8.80
2022-12-27T04:17:57.924Z,8.80
2022-12-27T04:20:44.034Z,8.80
2022-12-27T04:23:31.318Z,8.80
2022-12-27T04:26:16.950Z,8.80
2022-12-27T04:29:02.864Z,8.80
2022-12-27T04:31:48.815Z,8.80
2022-12-27T04:34:34.220Z,8.80
2022-12-27T04:37:02.720Z,8.80
2022-12-27T04:39:32.792Z,8.80
2022-12-27T04:42:18.324Z,8.80
2022-12-27T04:45:03.985Z,9.10
2022-12-27T04:47:50.902Z,8.80
2022-12-27T04:50:43.941Z,8.80
2022-12-27T04:53:31.942Z,8.90
2022-12-27T04:56:02.246Z,8.80
2022-12-27T04:58:30.746Z,8.80
2022-12-27T05:01:20.714Z,8.80
2022-12-27T05:03:51.607Z,8.80
2022-12-27T05:06:20.704Z,8.80
2022-12-27T05:09:07.801Z,8.80
2022-12-27T05:11:55.827Z,8.80
2022-12-27T05:14:24.083Z,8.80
2022-12-27T05:16:52.709Z,8.80
2022-12-27T05:19:21.105Z,8.90
2022-12-27T05:22:06.089Z,8.80
2022-12-27T05:24:52.761Z,8.80
2022-12-27T05:27:22.838Z,8.80
2022-12-27T05:29:51.660Z,8.70
2022-12-27T05:32:20.577Z,8.70
2022-12-27T05:34:49.281Z,8.80
2022-12-27T05:37:17.994Z,8.90
2022-12-27T05:39:46.599Z,8.70
2022-12-27T05:42:15.301Z,8.70
2022-12-27T05:44:45.578Z,8.70
2022-12-27T05:47:16.367Z,8.70
2022-12-27T05:49:45.935Z,8.70
2022-12-27T05:52:16.477Z,8.70
2022-12-27T05:54:45.655Z,8.70
2022-12-27T05:57:15.151Z,8.70
2022-12-27T05:59:45.511Z,8.80
2022-12-27T06:02:16.481Z,8.70
2022-12-27T06:04:46.675Z,8.70
2022-12-27T06:07:15.989Z,8.80
2022-12-27T06:09:44.774Z,8.70
2022-12-27T06:12:14.130Z,8.70
2022-12-27T06:14:44.504Z,8.70
2022-12-27T06:17:14.526Z,8.70
2022-12-27T06:19:43.232Z,8.70
2022-12-27T06:22:11.547Z,8.70
2022-12-27T06:24:40.564Z,8.70
2022-12-27T06:27:08.940Z,8.70
2022-12-27T06:29:38.027Z,8.70
2022-12-27T06:32:12.232Z,8.60
2022-12-27T06:34:41.502Z,8.70
2022-12-27T06:37:11.015Z,8.60
2022-12-27T06:39:40.653Z,8.70
2022-12-27T06:42:09.318Z,8.70
2022-12-27T06:44:46.493Z,8.70
2022-12-27T06:47:30.680Z,8.70
2022-12-27T06:50:01.122Z,8.70
2022-12-27T06:52:29.936Z,8.70
2022-12-27T06:54:59.043Z,8.70
2022-12-27T06:57:27.462Z,8.70
2022-12-27T06:59:55.743Z,8.70
2022-12-27T07:02:25.974Z,8.70
2022-12-27T07:04:54.408Z,8.70
2022-12-27T07:07:22.759Z,8.70
2022-12-27T07:09:52.335Z,8.70
2022-12-27T07:12:21.107Z,8.70
2022-12-27T07:14:49.646Z,8.70
2022-12-27T07:17:18.277Z,8.70
2022-12-27T07:19:50.607Z,8.70
2022-12-27T07:22:19.490Z,8.70
2022-12-27T07:24:49.646Z,8.70
2022-12-27T07:27:18.368Z,8.60
2022-12-27T07:29:47.025Z,8.60
2022-12-27T07:32:15.624Z,8.60
2022-12-27T07:34:44.001Z,8.70
2022-12-27T07:37:14.122Z,8.60
2022-12-27T07:39:42.447Z,8.60
2022-12-27T07:42:10.825Z,8.60
2022-12-27T07:44:39.677Z,8.60
2022-12-27T07:47:08.350Z,8.60
2022-12-27T07:49:36.809Z,8.60
2022-12-27T07:52:05.260Z,8.60
2022-12-27T07:54:35.386Z,8.60
2022-12-27T07:57:04.686Z,8.60
2022-12-27T07:59:33.228Z,8.60
2022-12-27T08:02:07.347Z,8.60
2022-12-27T08:04:38.852Z,8.60
2022-12-27T08:07:10.248Z,8.60
2022-12-27T08:09:42.105Z,8.60
2022-12-27T08:12:11.479Z,8.60
2022-12-27T08:14:41.353Z,8.60
2022-12-27T08:17:22.078Z,8.60
2022-12-27T08:19:53.216Z,8.60
2022-12-27T08:22:22.146Z,8.60
2022-12-27T08:24:52.015Z,8.60
2022-12-27T08:27:24.321Z,8.60
2022-12-27T08:29:52.774Z,8.60
2022-12-27T08:32:21.425Z,8.60
2022-12-27T08:34:50.258Z,8.60
2022-12-27T08:37:18.637Z,8.60
2022-12-27T08:39:47.708Z,8.60
2022-12-27T08:42:17.840Z,8.60
2022-12-27T08:44:46.691Z,8.60
2022-12-27T08:47:15.510Z,8.60
2022-12-27T08:49:44.227Z,8.60
2022-12-27T08:52:14.793Z,8.60
2022-12-27T08:54:43.205Z,8.60
2022-12-27T08:57:12.363Z,8.70
2022-12-27T09:00:00.748Z,8.60
2022-12-27T09:02:29.789Z,8.70
2022-12-27T09:04:58.837Z,8.70
2022-12-27T09:07:27.581Z,8.70
2022-12-27T09:09:56.185Z,8.70
2022-12-27T09:12:26.196Z,8.70
2022-12-27T09:14:56.621Z,8.70
2022-12-27T09:17:26.902Z,8.70
2022-12-27T09:19:55.281Z,8.70
2022-12-27T09:22:23.780Z,8.70
2022-12-27T09:24:52.320Z,8.90
2022-12-27T09:27:20.821Z,8.70
2022-12-27T09:29:49.827Z,8.70
2022-12-27T09:32:18.456Z,8.80
2022-12-27T09:34:48.740Z,8.70
2022-12-27T09:37:17.238Z,8.70
2022-12-27T09:39:47.846Z,8.50
2022-12-27T09:45:21.067Z,8.80
2022-12-27T09:47:57.590Z,8.80
2022-12-27T09:50:32.393Z,8.80
2022-12-27T09:53:05.485Z,8.80
2022-12-27T09:55:43.133Z,8.80
2022-12-27T09:58:24.531Z,8.80
2022-12-27T10:00:53.374Z,8.90
2022-12-27T10:03:26.361Z,8.90
2022-12-27T10:06:02.338Z,8.90
2022-12-27T10:08:44.186Z,8.90
2022-12-27T10:11:37.592Z,8.90
2022-12-27T10:14:27.256Z,8.90
2022-12-27T10:17:02.740Z,8.90
2022-12-27T10:19:42.836Z,8.90
2022-12-27T10:22:23.647Z,8.90
2022-12-27T10:25:00.958Z,9.00
2022-12-27T10:27:32.087Z,9.00
2022-12-27T10:30:03.358Z,9.00
2022-12-27T10:32:31.812Z,9.00
2022-12-27T10:35:03.671Z,9.00
2022-12-27T10:37:33.996Z,9.00
2022-12-27T10:40:10.534Z,9.20
2022-12-27T10:42:41.923Z,9.00
2022-12-27T10:45:32.360Z,9.00
2022-12-27T10:48:16.439Z,9.00
2022-12-27T10:50:48.882Z,9.00
2022-12-27T10:53:37.152Z,9.10
2022-12-27T10:56:15.194Z,9.10
2022-12-27T10:58:46.044Z,9.10
2022-12-27T11:01:24.189Z,9.10
2022-12-27T11:03:53.787Z,9.10
2022-12-27T11:06:25.786Z,9.10
2022-12-27T11:08:56.588Z,9.10
2022-12-27T11:11:29.283Z,9.20
2022-12-27T11:14:13.424Z,9.20
2022-12-27T11:16:44.344Z,9.20
2022-12-27T11:19:25.026Z,9.20
2022-12-27T11:21:55.719Z,9.20
2022-12-27T11:24:28.392Z,9.20
2022-12-27T11:26:59.887Z,9.20
2022-12-27T11:29:32.407Z,9.20
2022-12-27T11:32:08.797Z,9.30
2022-12-27T11:34:39.390Z,9.30
2022-12-27T11:37:14.429Z,9.30
2022-12-27T11:39:46.238Z,9.30
2022-12-27T11:42:25.902Z,9.30
2022-12-27T11:45:06.506Z,9.30
2022-12-27T11:47:43.034Z,9.40
2022-12-27T11:50:41.765Z,9.40
2022-12-27T11:53:22.181Z,9.40
2022-12-27T11:56:13.693Z,9.40
2022-12-27T11:59:19.353Z,9.40
2022-12-27T12:02:21.938Z,9.50
2022-12-27T12:05:29.032Z,9.50
2022-12-27T12:08:15.721Z,9.50
2022-12-27T12:10:54.739Z,9.50
2022-12-27T12:13:53.734Z,9.50
2022-12-27T12:16:46.600Z,9.50
2022-12-27T12:19:30.084Z,9.50
2022-12-27T12:22:17.368Z,9.50
2022-12-27T12:25:08.899Z,9.50
2022-12-27T12:27:55.405Z,9.50
2022-12-27T12:30:58.758Z,9.50
2022-12-27T12:33:58.430Z,9.60
2022-12-27T12:36:52.108Z,9.60
2022-12-27T12:39:31.154Z,9.60
2022-12-27T12:42:15.147Z,9.60
2022-12-27T12:45:19.330Z,9.60
2022-12-27T12:48:07.724Z,9.60
2022-12-27T12:51:02.421Z,9.60
2022-12-27T12:53:49.799Z,9.60
2022-12-27T12:56:34.016Z,9.60
2022-12-27T12:59:19.130Z,9.60
2022-12-27T13:02:01.463Z,9.70
2022-12-27T13:05:03.016Z,9.60
2022-12-27T13:07:47.637Z,9.70
2022-12-27T13:10:46.491Z,9.70
2022-12-27T13:13:23.250Z,9.70
2022-12-27T13:16:01.603Z,9.70
2022-12-27T13:18:40.411Z,9.70
2022-12-27T13:21:21.220Z,9.70
2022-12-27T13:24:02.169Z,9.70
2022-12-27T13:26:45.156Z,9.70
2022-12-27T13:29:47.779Z,9.70
2022-12-27T13:32:28.799Z,9.70
2022-12-27T13:35:20.269Z,9.80
2022-12-27T13:38:05.640Z,9.70
2022-12-27T13:41:14.039Z,9.80
2022-12-27T13:44:03.682Z,9.80
2022-12-27T13:46:55.336Z,9.80
2022-12-27T13:49:50.669Z,9.70
2022-12-27T13:52:54.483Z,9.80
2022-12-27T13:55:50.318Z,9.80
2022-12-27T13:58:59.962Z,9.80
2022-12-27T14:01:47.252Z,9.80
2022-12-27T14:04:43.989Z,9.80
2022-12-27T14:07:32.426Z,9.80
2022-12-27T14:10:22.582Z,9.80
2022-12-27T14:13:02.453Z,9.80
2022-12-27T14:16:00.652Z,9.80
2022-12-27T14:18:47.132Z,9.80
2022-12-27T14:21:43.199Z,9.80
2022-12-27T14:24:27.281Z,9.80
2022-12-27T14:27:40.466Z,9.80
2022-12-27T14:30:42.249Z,9.80
2022-12-27T14:33:56.429Z,9.80
2022-12-27T14:37:01.080Z,9.80
2022-12-27T14:40:03.467Z,9.80
2022-12-27T14:43:08.658Z,9.80
2022-12-27T14:46:14.486Z,9.80
2022-12-27T14:49:09.788Z,9.80
2022-12-27T14:52:12.438Z,9.80
2022-12-27T14:55:16.075Z,9.80
2022-12-27T14:57:54.479Z,9.90
2022-12-27T15:00:25.602Z,9.90
2022-12-27T15:03:09.562Z,9.80
2022-12-27T15:05:51.988Z,9.80
2022-12-27T15:08:44.139Z,9.90
2022-12-27T15:11:39.323Z,9.90
2022-12-27T15:14:31.988Z,9.80
2022-12-27T15:17:18.561Z,9.80
2022-12-27T15:20:15.707Z,9.80
2022-12-27T15:22:57.655Z,9.90
2022-12-27T15:25:36.043Z,9.80
2022-12-27T15:28:14.807Z,9.90
2022-12-27T15:30:51.804Z,9.80
2022-12-27T15:33:28.320Z,9.80
2022-12-27T15:36:05.284Z,9.80
2022-12-27T15:38:54.487Z,9.80
2022-12-27T15:41:38.624Z,9.80
2022-12-27T15:44:38.729Z,9.80
2022-12-27T15:47:32.039Z,9.80
2022-12-27T15:50:19.391Z,9.80
2022-12-27T15:53:19.973Z,9.90
2022-12-27T15:56:12.112Z,9.90
2022-12-27T15:58:41.399Z,9.80
2022-12-27T16:01:30.002Z,9.80
2022-12-27T16:04:01.349Z,9.80
2022-12-27T16:06:51.700Z,9.80
2022-12-27T16:09:36.389Z,9.80
2022-12-27T16:12:10.575Z,9.80
2022-12-27T16:14:40.549Z,9.80
2022-12-27T16:17:31.037Z,9.80
2022-12-27T16:20:18.656Z,9.80
2022-12-27T16:22:53.956Z,9.80
2022-12-27T16:25:31.421Z,9.80
2022-12-27T16:28:05.205Z,9.80
2022-12-27T16:30:47.695Z,9.80
2022-12-27T16:33:34.990Z,9.80
2022-12-27T16:36:20.992Z,9.80
2022-12-27T16:39:03.804Z,9.80
2022-12-27T16:41:58.156Z,9.80
2022-12-27T16:44:38.746Z,9.80
2022-12-27T16:47:27.021Z,9.80
2022-12-27T16:50:21.236Z,9.80
2022-12-27T16:53:01.190Z,9.80
2022-12-27T16:56:03.400Z,9.80
2022-12-27T16:58:37.704Z,9.80
2022-12-27T17:01:27.842Z,9.80
2022-12-27T17:03:57.607Z,9.80
2022-12-27T17:06:56.077Z,9.80
2022-12-27T17:09:43.394Z,9.80
2022-12-27T17:12:25.724Z,9.80
2022-12-27T17:15:05.270Z,9.70
2022-12-27T17:17:34.165Z,9.70
2022-12-27T17:20:06.506Z,9.70
2022-12-27T17:22:36.012Z,9.70
2022-12-27T17:25:05.561Z,9.80
2022-12-27T17:27:51.381Z,9.80
2022-12-27T17:30:23.455Z,9.70
2022-12-27T17:33:07.777Z,9.70
2022-12-27T17:35:44.918Z,9.70
2022-12-27T17:38:24.187Z,9.70
2022-12-27T17:41:03.353Z,9.70
2022-12-27T17:43:58.961Z,9.70
2022-12-27T17:46:38.311Z,9.70
2022-12-27T17:49:09.368Z,9.70
2022-12-27T17:52:01.718Z,9.70
2022-12-27T17:54:48.425Z,9.70
2022-12-27T17:57:37.866Z,9.70
2022-12-27T18:00:07.887Z,9.70
2022-12-27T18:02:42.591Z,9.70
2022-12-27T18:05:16.335Z,9.60
2022-12-27T18:07:45.622Z,9.60
2022-12-27T18:10:21.947Z,9.60
2022-12-27T18:12:53.120Z,9.60
2022-12-27T18:15:24.877Z,9.60
2022-12-27T18:17:56.619Z,9.60
2022-12-27T18:20:34.890Z,9.60
2022-12-27T18:23:16.109Z,9.60
2022-12-27T18:25:56.097Z,9.60
2022-12-27T18:28:32.485Z,9.60
2022-12-27T18:31:09.121Z,9.60
2022-12-27T18:33:43.626Z,9.60
2022-12-27T18:36:16.900Z,9.60
2022-12-27T18:38:48.101Z,9.60
2022-12-27T18:41:19.676Z,9.50
2022-12-27T18:43:51.367Z,9.50
2022-12-27T18:46:28.523Z,9.50
2022-12-27T18:48:58.515Z,9.50
2022-12-27T18:51:32.663Z,9.50
2022-12-27T18:54:01.482Z,9.50
2022-12-27T18:56:32.694Z,9.50
2022-12-27T18:59:04.326Z,9.50
2022-12-27T19:01:40.628Z,9.50
2022-12-27T19:04:25.849Z,9.50
2022-12-27T19:06:58.253Z,9.40
2022-12-27T19:09:29.859Z,9.50
2022-12-27T19:12:00.529Z,9.50
2022-12-27T19:14:37.159Z,9.50
2022-12-27T19:17:11.064Z,9.50
2022-12-27T19:19:41.105Z,9.40
2022-12-27T19:22:31.355Z,9.40
2022-12-27T19:25:01.171Z,9.40
2022-12-27T19:27:29.561Z,9.40
2022-12-27T19:29:57.905Z,9.40
2022-12-27T19:32:32.724Z,9.40
2022-12-27T19:35:04.940Z,9.40
2022-12-27T19:37:35.764Z,9.40
2022-12-27T19:40:04.939Z,9.40
2022-12-27T19:42:35.220Z,9.40
2022-12-27T19:45:03.687Z,9.40
2022-12-27T19:47:34.745Z,9.40
2022-12-27T19:50:04.969Z,9.40
2022-12-27T19:52:33.880Z,9.40
2022-12-27T19:55:07.223Z,9.30
2022-12-27T19:57:35.579Z,9.30
2022-12-27T20:00:12.158Z,9.30
2022-12-27T20:02:41.535Z,9.30
2022-12-27T20:05:13.419Z,9.30
2022-12-27T20:07:42.789Z,9.30
2022-12-27T20:10:16.139Z,9.30
2022-12-27T20:12:44.424Z,9.30
2022-12-27T20:15:13.651Z,9.30
2022-12-27T20:17:44.942Z,9.30
2022-12-27T20:20:15.579Z,9.30
2022-12-27T20:22:44.445Z,9.30
2022-12-27T20:25:14.139Z,9.30
2022-12-27T20:27:44.605Z,9.30
2022-12-27T20:30:15.426Z,9.30
2022-12-27T20:32:43.800Z,9.30
2022-12-27T20:35:14.711Z,9.30
2022-12-27T20:37:44.573Z,9.20
2022-12-27T20:40:14.044Z,9.30
2022-12-27T20:42:42.450Z,9.30
2022-12-27T20:45:11.582Z,9.30
2022-12-27T20:47:40.694Z,9.30
2022-12-27T20:50:09.591Z,9.20
2022-12-27T20:52:39.380Z,9.30
2022-12-27T20:55:10.467Z,9.20
2022-12-27T20:57:39.758Z,9.30
2022-12-27T21:00:11.955Z,9.20
2022-12-27T21:02:41.215Z,9.20
2022-12-27T21:05:11.417Z,9.20
2022-12-27T21:07:41.402Z,9.20
2022-12-27T21:10:15.155Z,9.30
2022-12-27T21:12:45.448Z,9.20
2022-12-27T21:15:15.921Z,9.20
2022-12-27T21:17:44.701Z,9.20
2022-12-27T21:20:16.979Z,9.20
2022-12-27T21:22:46.100Z,9.20
2022-12-27T21:25:18.832Z,9.20
2022-12-27T21:27:48.782Z,9.20
2022-12-27T21:30:18.734Z,9.50
2022-12-27T21:32:49.098Z,9.20
2022-12-27T21:35:20.575Z,9.20
2022-12-27T21:37:49.371Z,9.20
2022-12-27T21:40:24.126Z,9.20
2022-12-27T21:42:53.261Z,9.20
2022-12-27T21:45:23.180Z,9.20
2022-12-27T21:47:52.840Z,9.20
2022-12-27T21:50:21.260Z,9.20
2022-12-27T21:52:49.558Z,9.20
2022-12-27T21:55:19.378Z,9.20
2022-12-27T21:57:47.587Z,9.20
2022-12-27T22:00:17.046Z,9.20
2022-12-27T22:02:45.384Z,9.20
2022-12-27T22:05:14.758Z,9.20
2022-12-27T22:07:44.880Z,9.20
2022-12-27T22:10:14.993Z,9.20
2022-12-27T22:12:44.593Z,9.20
2022-12-27T22:15:13.746Z,9.20
2022-12-27T22:17:42.128Z,9.20
2022-12-27T22:20:12.179Z,9.20
2022-12-27T22:22:40.628Z,9.30
2022-12-27T22:25:10.121Z,9.20
2022-12-27T22:27:38.476Z,9.20
2022-12-27T22:30:09.077Z,9.20
2022-12-27T22:32:38.556Z,9.20
2022-12-27T22:35:07.370Z,9.40
2022-12-27T22:37:35.664Z,9.20
2022-12-27T22:40:04.132Z,9.20
2022-12-27T22:42:34.132Z,9.20
2022-12-27T22:45:02.519Z,9.20
2022-12-27T22:47:32.197Z,9.20
2022-12-27T22:50:00.612Z,9.20
2022-12-27T22:52:28.985Z,9.20
2022-12-27T22:55:04.366Z,9.20
2022-12-27T22:57:34.688Z,9.20
2022-12-27T23:00:03.086Z,9.20
2022-12-27T23:02:32.844Z,9.20
2022-12-27T23:05:01.280Z,9.20
2022-12-27T23:08:05.348Z,9.20
2022-12-27T23:10:18.821Z,9.20
2022-12-27T23:12:47.199Z,9.20
2022-12-27T23:15:16.950Z,9.20
2022-12-27T23:17:46.728Z,9.20
2022-12-27T23:20:21.881Z,9.20
2022-12-27T23:22:50.309Z,9.20
2022-12-27T23:25:19.000Z,9.20
2022-12-27T23:27:47.300Z,9.20
2022-12-27T23:30:16.607Z,9.20
2022-12-27T23:32:46.411Z,9.20
2022-12-27T23:35:15.410Z,9.20
2022-12-27T23:37:43.759Z,9.30
2022-12-27T23:40:13.607Z,9.20
2022-12-27T23:42:42.224Z,9.30
2022-12-27T23:45:12.071Z,9.30
2022-12-27T23:47:40.399Z,9.30
2022-12-27T23:50:15.835Z,9.30
2022-12-27T23:52:47.435Z,9.30
2022-12-27T23:55:16.335Z,9.20
2022-12-27T23:57:44.741Z,9.30
